ΕΜΥ, Εθνική Μετεωρολογική Υπηρεσία - Δελτία Καιρού, Προγνώσεις

ΑΕΡΟΝΑΥΤΙΛΙΑ

GREEK AIRPORTS CODES

LGSA 202020Z 36008KT 9999 FEW020 BKN030 09/05 Q1035=

EUROPEAN AIRPORTS CODES

TAF LGAV 201700Z 2018/2118 01020KT 9999 FEW020 SCT030 BKN070 TEMPO 2018/2102 02025G35KT=